Time;durP1;ratioP1;P1;durP2;ratioP2;P2;SDS_P1;SDS_P2;PMS_P1;PMS_P2;Temp;Humidity;BMP_temperature;BMP_pressure;BME280_temperature;BME280_humidity;BME280_pressure;Samples;Min_cycle;Max_cycle;Signal;HPM_P1;HPM_P2
2022/01/21 00:04:48;;;;;;;;;;;-1.10;99.90;;;-2.20;100.00;96585.97;10491877;28;1911;-76
2022/01/21 00:09:51;;;;;;;;;;;-1.10;99.90;;;-2.08;100.00;96577.69;10490599;28;1917;-81
2022/01/21 00:14:54;;;;;;;;;;;-1.00;99.90;;;-2.12;100.00;96571.94;10490512;28;1813;-78
2022/01/21 00:30:37;;;;;;;;;;;-1.20;99.90;;;-2.30;100.00;96590.63;10489137;28;1950;-79
2022/01/21 00:35:40;;;;;;;;;;;-1.20;99.90;;;-2.18;100.00;96593.72;10486825;28;1830;-80
2022/01/21 00:40:43;;;;;;;;;;;-1.10;99.90;;;-2.21;100.00;96586.16;10486116;28;1806;-80
2022/01/21 00:45:46;;;;;;;;;;;-1.10;99.90;;;-2.06;100.00;96586.22;10485898;28;1897;-79
2022/01/21 00:50:50;;;;;;;;;;;-0.70;99.90;;;-1.96;100.00;96597.38;10490743;28;1914;-79
2022/01/21 00:55:53;;;;;;;;;;;-1.00;99.90;;;-1.95;100.00;96605.09;10492131;28;1819;-80
2022/01/21 01:00:56;;;;;;;;;;;-0.90;99.90;;;-1.91;100.00;96598.50;10488342;28;1902;-80
2022/01/21 01:06:00;;;;;;;;;;;-0.80;99.90;;;-1.88;100.00;96610.47;10495057;28;2015;-79
2022/01/21 01:11:19;;;;;;;;;;;-0.90;99.90;;;-1.79;100.00;96608.59;10498339;28;2047;-78
2022/01/21 01:21:47;;;;;;;;;;;-0.70;99.90;;;-1.67;100.00;96615.91;10490676;28;2130;-78
2022/01/21 01:32:11;;;;;;;;;;;-0.60;99.90;;;-1.51;100.00;96620.25;10495098;28;1881;-80
2022/01/21 01:37:26;;;;;;;;;;;-0.60;99.90;;;-1.43;100.00;96624.63;10484040;28;1830;-81
2022/01/21 01:42:53;;;;;;;;;;;-0.40;99.90;;;-1.49;100.00;96625.34;10485349;28;1867;-77
2022/01/21 01:53:17;;;;;;;;;;;-0.50;99.90;;;-1.72;100.00;96644.66;10530431;22;2011;-67
2022/01/21 01:58:19;;;;;;;;;;;-0.60;99.90;;;-1.72;100.00;96634.09;10537798;28;1762;-67
2022/01/21 02:03:22;;;;;;;;;;;-0.70;99.90;;;-1.71;100.00;96642.84;10511364;28;1861;-65
2022/01/21 02:08:25;;;;;;;;;;;-0.60;99.90;;;-1.76;100.00;96643.34;10517999;28;1922;-65
2022/01/21 02:13:31;;;;;;;;;;;-0.70;99.90;;;-1.75;100.00;96636.25;10507361;28;1762;-66
2022/01/21 02:23:57;;;;;;;;;;;-0.60;99.90;;;-1.67;100.00;96634.38;10507977;28;1909;-67
2022/01/21 02:29:03;;;;;;;;;;;-0.70;99.90;;;-1.71;100.00;96621.75;10519580;28;2016;-68
2022/01/21 02:34:06;;;;;;;;;;;-0.70;99.90;;;-1.67;100.00;96628.28;10518110;28;1955;-67
2022/01/21 02:39:09;;;;;;;;;;;-0.70;99.90;;;-1.66;100.00;96637.81;10515934;28;1972;-67
2022/01/21 02:44:16;;;;;;;;;;;-0.60;99.90;;;-1.67;99.96;96634.38;10512357;28;2167;-67
2022/01/21 02:49:20;;;;;;;;;;;-0.20;99.90;;;-1.72;99.71;96628.84;10520063;28;2012;-68
2022/01/21 02:54:23;;;;;;;;;;;-0.50;99.90;;;-1.65;98.80;96629.75;10518145;28;1977;-68
2022/01/21 02:59:26;;;;;;;;;;;-0.60;99.90;;;-1.65;100.00;96640.31;10522454;28;1847;-67
2022/01/21 03:04:36;;;;;;;;;;;-0.60;99.90;;;-1.66;99.84;96628.09;10518356;28;1946;-68
2022/01/21 03:09:39;;;;;;;;;;;-0.60;99.90;;;-1.56;98.29;96632.34;10518720;28;1959;-68
2022/01/21 03:14:42;;;;;;;;;;;-0.60;99.90;;;-1.60;98.48;96642.41;10517132;28;1929;-67
2022/01/21 03:19:46;;;;;;;;;;;-0.50;99.90;;;-1.56;98.23;96648.97;10515882;28;1913;-67
2022/01/21 03:24:49;;;;;;;;;;;-0.50;99.90;;;-1.56;98.44;96653.41;10520636;28;1963;-67
2022/01/21 03:29:52;;;;;;;;;;;-0.50;99.90;;;-1.56;98.44;96667.44;10518002;28;2001;-67
2022/01/21 03:34:55;;;;;;;;;;;-0.50;99.90;;;-1.63;99.35;96669.13;10515876;28;2040;-66
2022/01/21 03:39:58;;;;;;;;;;;-0.60;99.90;;;-1.59;99.40;96661.66;10515392;28;1862;-66
2022/01/21 03:45:01;;;;;;;;;;;-0.50;99.90;;;-1.60;98.93;96662.66;10513199;28;1972;-67
2022/01/21 03:50:21;;;;;;;;;;;-0.50;99.90;;;-1.65;99.42;96666.69;10513359;28;1972;-67
2022/01/21 03:55:24;;;;;;;;;;;-0.50;99.90;;;-1.67;100.00;96676.56;10523158;28;1969;-67
2022/01/21 04:00:27;;;;;;;;;;;-0.60;99.90;;;-1.76;100.00;96666.25;10515037;28;2029;-67
2022/01/21 04:05:31;;;;;;;;;;;-0.60;99.90;;;-1.70;100.00;96660.28;10515723;28;1933;-67
2022/01/21 04:10:35;;;;;;;;;;;-0.60;99.90;;;-1.77;100.00;96664.63;10517288;28;1989;-67
2022/01/21 04:15:42;;;;;;;;;;;-0.70;99.90;;;-1.77;100.00;96664.63;10513539;28;1952;-67
2022/01/21 04:20:44;;;;;;;;;;;-0.70;99.90;;;-1.75;100.00;96673.97;10516408;28;1918;-68
2022/01/21 04:25:48;;;;;;;;;;;-1.10;99.90;;;-1.79;100.00;96670.03;10512526;28;1925;-66
2022/01/21 04:30:51;;;;;;;;;;;-0.70;99.90;;;-1.73;100.00;96669.34;10522965;28;1926;-69
2022/01/21 04:35:54;;;;;;;;;;;-0.70;99.90;;;-1.71;100.00;96667.38;10517491;28;1680;-66
2022/01/21 04:41:04;;;;;;;;;;;-0.70;99.90;;;-1.73;100.00;96674.63;10533087;28;1980;-65
2022/01/21 04:51:29;;;;;;;;;;;-0.70;99.90;;;-1.69;100.00;96690.91;10547780;28;1933;-66
2022/01/21 04:56:32;;;;;;;;;;;-0.60;99.90;;;-1.70;100.00;96691.91;10534391;28;1961;-68
2022/01/21 05:01:35;;;;;;;;;;;-0.70;99.90;;;-1.64;100.00;96692.03;10517714;28;1914;-67
2022/01/21 05:06:40;;;;;;;;;;;-0.60;99.90;;;-1.58;100.00;96702.88;10512456;28;1898;-66
2022/01/21 05:11:46;;;;;;;;;;;-0.60;99.90;;;-1.62;100.00;96697.13;10516368;28;2138;-67
2022/01/21 05:17:00;;;;;;;;;;;-0.60;99.90;;;-1.61;100.00;96706.66;10511360;28;1964;-68
2022/01/21 05:22:03;;;;;;;;;;;-0.50;99.90;;;-1.51;100.00;96712.56;10508774;28;1869;-67
2022/01/21 05:27:07;;;;;;;;;;;-0.60;99.90;;;-1.51;100.00;96712.56;10510383;28;1835;-67
2022/01/21 05:32:09;;;;;;;;;;;-0.50;99.90;;;-1.61;100.00;96726.94;10512100;28;1995;-66
2022/01/21 05:37:12;;;;;;;;;;;-0.50;99.90;;;-1.61;100.00;96721.66;10515481;28;2012;-66
2022/01/21 05:42:15;;;;;;;;;;;-0.60;99.90;;;-1.64;100.00;96757.94;10520684;28;1937;-67
2022/01/21 05:47:18;;;;;;;;;;;-0.30;99.90;;;-2.28;99.06;96767.75;10515427;28;1929;-67
2022/01/21 05:52:30;;;;;;;;;;;-0.90;99.90;;;-2.64;100.00;96777.03;10508021;28;2050;-66
2022/01/21 05:57:33;;;;;;;;;;;-1.70;99.90;;;-2.91;100.00;96781.66;10526475;28;1913;-68
2022/01/21 06:02:36;;;;;;;;;;;-1.90;99.90;;;-2.92;100.00;96790.56;10536150;28;1956;-67
2022/01/21 06:07:40;;;;;;;;;;;-1.90;99.90;;;-2.79;100.00;96790.06;10533699;28;2085;-66
2022/01/21 06:12:43;;;;;;;;;;;-1.80;99.90;;;-2.79;100.00;96801.41;10511044;28;1898;-66
2022/01/21 06:17:46;;;;;;;;;;;-1.70;99.90;;;-2.73;100.00;96819.16;10518506;28;2008;-65
2022/01/21 06:22:50;;;;;;;;;;;-1.60;99.90;;;-2.62;100.00;96811.91;10519796;28;1953;-65
2022/01/21 06:27:53;;;;;;;;;;;-1.60;99.90;;;-2.69;100.00;96818.81;10526870;28;1915;-66
2022/01/21 06:32:57;;;;;;;;;;;-1.60;99.90;;;-2.73;100.00;96826.25;10519040;28;1953;-67
2022/01/21 06:38:00;;;;;;;;;;;-1.60;99.90;;;-2.72;100.00;96822.63;10522474;28;2120;-66
2022/01/21 06:43:03;;;;;;;;;;;-1.60;99.90;;;-2.86;100.00;96815.34;10511779;28;2140;-67
2022/01/21 06:48:06;;;;;;;;;;;-1.40;99.90;;;-2.88;100.00;96828.69;10515722;28;2193;-65
2022/01/21 06:53:09;;;;;;;;;;;-1.30;99.90;;;-2.92;100.00;96832.66;10524326;28;1938;-67
2022/01/21 06:58:12;;;;;;;;;;;-1.70;99.90;;;-3.05;100.00;96830.50;10516068;28;1841;-67
2022/01/21 07:03:15;;;;;;;;;;;-1.70;99.90;;;-3.04;100.00;96839.22;10508060;28;2055;-68
2022/01/21 07:08:18;;;;;;;;;;;-1.80;99.90;;;-2.93;100.00;96846.75;10517862;28;1969;-69
2022/01/21 07:13:21;;;;;;;;;;;-1.80;99.90;;;-2.56;100.00;96841.03;10514451;28;1902;-70
2022/01/21 07:18:24;;;;;;;;;;;-1.70;99.90;;;-2.27;100.00;96858.94;10522249;28;1936;-69
2022/01/21 07:23:27;;;;;;;;;;;-1.40;99.90;;;-2.05;100.00;96862.69;10513687;28;2065;-68
2022/01/21 07:28:30;;;;;;;;;;;-1.20;99.90;;;-1.98;100.00;96865.47;10511933;28;1985;-69
2022/01/21 07:33:34;;;;;;;;;;;-1.10;99.90;;;-1.93;100.00;96868.41;10513647;28;1889;-68
2022/01/21 07:38:38;;;;;;;;;;;-0.70;99.90;;;-1.91;100.00;96879.59;10515508;28;2105;-70
2022/01/21 07:43:41;;;;;;;;;;;-0.90;99.90;;;-1.48;99.29;96869.59;10508540;28;1968;-67
2022/01/21 07:48:45;;;;;;;;;;;-0.70;99.90;;;-1.55;98.47;96856.28;10506800;28;1977;-69
2022/01/21 07:53:48;;;;;;;;;;;-0.60;99.90;;;-1.83;99.94;96868.25;10504079;28;1937;-68
2022/01/21 07:58:51;;;;;;;;;;;-0.70;99.90;;;-2.03;100.00;96870.44;10516331;28;1930;-68
2022/01/21 08:03:55;;;;;;;;;;;-0.80;99.90;;;-2.19;100.00;96872.09;10515859;28;2075;-69
2022/01/21 08:08:59;;;;;;;;;;;-1.00;99.90;;;-2.25;100.00;96872.75;10505758;28;2131;-69
2022/01/21 08:14:02;;;;;;;;;;;-1.10;99.90;;;-2.15;100.00;96877.03;10511132;28;1936;-69
2022/01/21 08:19:05;;;;;;;;;;;-1.10;99.90;;;-2.17;100.00;96880.66;10509347;28;2183;-70
2022/01/21 08:24:09;;;;;;;;;;;-1.10;99.90;;;-2.12;100.00;96861.72;10502105;28;1949;-70
2022/01/21 08:29:12;;;;;;;;;;;-1.00;99.90;;;-2.08;100.00;96854.31;10512662;28;2099;-70
2022/01/21 08:34:15;;;;;;;;;;;-1.00;99.90;;;-1.79;100.00;96859.81;10512169;28;1878;-68
2022/01/21 08:39:18;;;;;;;;;;;-0.90;99.90;;;-1.95;100.00;96873.88;10510611;28;1909;-68
2022/01/21 08:44:21;;;;;;;;;;;-0.80;99.90;;;-1.56;100.00;96862.53;10512150;28;2006;-69
2022/01/21 08:49:25;;;;;;;;;;;-0.70;99.90;;;-1.18;97.61;96860.88;10511952;28;1983;-68
2022/01/21 08:54:28;;;;;;;;;;;-0.40;99.90;;;-1.01;95.97;96863.44;10524623;28;2038;-69
2022/01/21 08:59:31;;;;;;;;;;;-0.20;99.90;;;-0.98;96.54;96865.72;10522422;28;2089;-69
2022/01/21 09:04:35;;;;;;;;;;;-0.10;99.90;;;-0.92;92.47;96854.47;10508168;28;2075;-69
2022/01/21 09:09:38;;;;;;;;;;;0.00;99.90;;;-1.26;94.88;96863.56;10515601;28;2029;-68
2022/01/21 09:14:42;;;;;;;;;;;-0.20;99.90;;;-1.54;96.28;96873.72;10514828;22;2093;-78
2022/01/21 09:19:45;;;;;;;;;;;-0.40;99.90;;;-1.29;95.98;96871.81;10483406;28;2393;-78
2022/01/21 09:24:48;;;;;;;;;;;-0.50;99.90;;;-0.80;93.13;96868.09;10469758;28;1936;-76
2022/01/21 09:29:51;;;;;;;;;;;-0.10;99.90;;;-0.17;90.16;96874.84;10470992;28;2377;-79
2022/01/21 09:34:54;;;;;;;;;;;0.40;99.90;;;-0.56;88.86;96875.81;10487973;28;1705;-78
2022/01/21 09:39:57;;;;;;;;;;;0.50;99.90;;;-0.78;90.16;96874.81;10502453;28;1965;-75
2022/01/21 09:45:00;;;;;;;;;;;0.20;99.90;;;-0.74;88.27;96864.75;10486434;28;2061;-77
2022/01/21 09:50:03;;;;;;;;;;;0.20;99.90;;;-0.58;89.40;96889.19;10488708;28;2030;-76
2022/01/21 09:55:06;;;;;;;;;;;0.30;99.90;;;-0.14;88.80;96898.25;10480975;28;1896;-77
2022/01/21 10:00:09;;;;;;;;;;;0.50;99.90;;;0.55;86.21;96885.66;10493313;28;1729;-77
2022/01/21 10:05:12;;;;;;;;;;;1.00;99.90;;;0.67;81.84;96897.41;10495673;28;1959;-76
2022/01/21 10:10:15;;;;;;;;;;;1.60;99.90;;;-0.21;83.10;96906.06;10491617;28;1907;-78
2022/01/21 10:15:24;;;;;;;;;;;1.20;99.90;;;-0.92;87.28;96901.97;10484533;28;1959;-77
2022/01/21 10:20:28;;;;;;;;;;;0.50;99.90;;;-0.45;88.12;96896.53;10483087;28;1929;-76
2022/01/21 10:25:31;;;;;;;;;;;0.40;99.90;;;0.01;85.32;96903.59;10484171;28;1939;-76
2022/01/21 10:30:34;;;;;;;;;;;0.80;99.90;;;-0.47;85.97;96903.81;10497443;28;2034;-79
2022/01/21 10:35:40;;;;;;;;;;;0.70;99.90;;;-0.10;81.35;96903.00;10527385;28;1562;-80
2022/01/21 10:40:43;;;;;;;;;;;0.80;99.90;;;0.00;84.35;96902.78;10500077;28;2030;-74
2022/01/21 10:45:46;;;;;;;;;;;0.90;99.90;;;-0.17;86.58;96909.19;10481393;28;1915;-77
2022/01/21 10:50:49;;;;;;;;;;;0.80;99.90;;;-0.54;87.91;96910.81;10491413;28;1918;-77
2022/01/21 10:55:52;;;;;;;;;;;0.60;99.90;;;-0.62;89.60;96911.69;10489887;28;1903;-76
2022/01/21 11:00:55;;;;;;;;;;;0.20;99.90;;;-0.45;89.87;96914.19;10481568;28;1958;-78
2022/01/21 11:05:58;;;;;;;;;;;0.30;99.90;;;-0.09;87.91;96902.00;10483754;28;1884;-76
2022/01/21 11:11:02;;;;;;;;;;;0.60;99.90;;;-0.39;85.65;96916.13;10477121;28;2175;-75
2022/01/21 11:16:05;;;;;;;;;;;0.50;99.90;;;-0.70;85.02;96905.63;10486658;28;1954;-75
2022/01/21 11:21:28;;;;;;;;;;;0.20;99.90;;;-1.24;85.40;96909.06;10501518;28;1916;-78
2022/01/21 11:26:31;;;;;;;;;;;0.00;99.90;;;-1.17;87.22;96896.81;10485630;28;1880;-74
2022/01/21 11:31:34;;;;;;;;;;;-0.30;99.90;;;-1.25;87.21;96886.31;10490483;28;1968;-78
2022/01/21 11:36:46;;;;;;;;;;;-0.30;99.90;;;-1.06;87.14;96892.16;10493035;28;1994;-76
2022/01/21 11:41:49;;;;;;;;;;;-0.30;99.90;;;-0.93;84.00;96880.03;10489394;28;2006;-77
2022/01/21 11:47:16;;;;;;;;;;;-0.20;99.90;;;-0.39;81.86;96881.78;10484936;28;1962;-77
2022/01/21 11:52:19;;;;;;;;;;;0.10;99.90;;;-0.03;77.09;96876.69;10482265;28;2087;-75
2022/01/21 11:57:22;;;;;;;;;;;0.50;99.90;;;-0.13;78.32;96862.88;10478962;28;2012;-76
2022/01/21 12:02:25;;;;;;;;;;;0.70;99.90;;;-0.15;77.83;96863.09;10491906;28;2049;-77
2022/01/21 12:07:29;;;;;;;;;;;0.70;99.90;;;-0.27;79.34;96838.09;10487065;28;1858;-77
2022/01/21 12:12:32;;;;;;;;;;;0.70;99.90;;;-0.22;81.37;96825.16;10472802;28;1899;-76
2022/01/21 12:17:34;;;;;;;;;;;0.70;99.90;;;-0.17;79.30;96820.16;10482702;28;1789;-76
2022/01/21 12:22:37;;;;;;;;;;;0.70;99.90;;;-0.07;76.63;96826.00;10475781;28;2223;-77
2022/01/21 12:27:40;;;;;;;;;;;0.70;99.90;;;0.32;76.43;96834.66;10480190;28;1824;-76
2022/01/21 12:32:43;;;;;;;;;;;1.00;99.90;;;0.70;73.93;96822.13;10483446;28;1918;-77
2022/01/21 12:38:03;;;;;;;;;;;1.30;99.90;;;1.00;72.45;96814.91;10479484;28;1875;-76
2022/01/21 12:43:06;;;;;;;;;;;1.60;99.90;;;0.57;72.57;96814.84;10474817;28;1855;-76
2022/01/21 12:48:10;;;;;;;;;;;1.50;99.90;;;0.20;72.89;96821.09;10472440;28;1883;-76
2022/01/21 12:53:19;;;;;;;;;;;1.10;99.90;;;0.17;73.64;96814.34;10476247;28;1922;-77
2022/01/21 12:58:23;;;;;;;;;;;1.00;99.90;;;0.32;73.82;96809.06;10480621;28;1819;-76
2022/01/21 13:03:26;;;;;;;;;;;1.10;99.90;;;0.51;72.22;96803.19;10484357;28;1885;-77
2022/01/21 13:08:29;;;;;;;;;;;1.20;99.90;;;0.50;73.26;96806.81;10477934;28;1842;-78
2022/01/21 13:13:48;;;;;;;;;;;1.40;99.90;;;0.29;74.27;96808.59;10474047;28;1937;-75
2022/01/21 13:18:51;;;;;;;;;;;1.30;99.90;;;0.13;78.17;96801.69;10493235;28;2894;-77
2022/01/21 13:23:57;;;;;;;;;;;1.20;99.90;;;0.08;77.47;96804.06;10503829;28;1906;-77
2022/01/21 13:29:00;;;;;;;;;;;1.10;99.90;;;0.23;77.30;96802.22;10476908;28;1832;-75
2022/01/21 13:34:04;;;;;;;;;;;1.20;99.90;;;0.17;74.78;96798.47;10479508;28;1964;-77
2022/01/21 13:39:09;;;;;;;;;;;1.20;99.90;;;0.36;73.21;96802.38;10476696;28;1919;-78
2022/01/21 13:44:11;;;;;;;;;;;1.20;99.90;;;0.94;72.81;96805.91;10507108;28;1901;-77
2022/01/21 13:49:15;;;;;;;;;;;1.60;99.90;;;1.15;75.00;96817.53;10517317;28;1925;-78
2022/01/21 13:54:18;;;;;;;;;;;1.80;99.90;;;1.14;71.66;96821.97;10497849;28;1902;-76
2022/01/21 13:59:21;;;;;;;;;;;1.90;99.90;;;1.14;73.02;96823.81;10479793;28;1787;-78
2022/01/21 14:04:24;;;;;;;;;;;2.00;99.90;;;0.99;71.94;96814.09;10477083;28;1862;-76
2022/01/21 14:09:27;;;;;;;;;;;2.00;99.90;;;0.91;71.22;96811.59;10476539;28;1987;-75
2022/01/21 14:14:33;;;;;;;;;;;2.00;99.90;;;0.74;72.97;96804.88;10482279;28;1894;-78
2022/01/21 14:19:37;;;;;;;;;;;1.70;99.90;;;0.49;73.15;96807.84;10475298;28;1932;-78
2022/01/21 14:24:40;;;;;;;;;;;1.60;99.90;;;0.52;73.12;96814.59;10497277;28;1844;-75
2022/01/21 14:29:43;;;;;;;;;;;1.50;99.90;;;0.39;74.44;96811.78;10491678;28;1942;-77
2022/01/21 14:34:46;;;;;;;;;;;1.30;99.90;;;0.35;74.11;96827.19;10495319;28;1895;-74
2022/01/21 14:39:49;;;;;;;;;;;1.20;99.90;;;0.08;74.92;96835.78;10488728;28;1860;-77
2022/01/21 14:44:52;;;;;;;;;;;1.10;99.90;;;0.14;74.41;96837.69;10487264;28;1757;-78
2022/01/21 14:49:55;;;;;;;;;;;1.10;99.90;;;0.08;74.69;96836.59;10477174;28;1979;-76
2022/01/21 14:54:58;;;;;;;;;;;1.00;99.90;;;0.00;77.64;96836.69;10481815;28;1964;-77
2022/01/21 15:00:02;;;;;;;;;;;1.00;99.90;;;0.05;76.77;96828.19;10480799;28;1757;-77
2022/01/21 15:05:11;;;;;;;;;;;1.00;99.90;;;-0.02;77.67;96836.03;10486509;28;2147;-76
2022/01/21 15:10:16;;;;;;;;;;;1.20;99.90;;;-0.01;79.47;96848.25;10484863;28;1914;-78
2022/01/21 15:15:19;;;;;;;;;;;1.40;99.90;;;-0.23;80.10;96838.56;10492762;28;1830;-78
2022/01/21 15:20:22;;;;;;;;;;;0.80;99.90;;;-0.32;82.20;96845.72;10488680;28;1797;-76
2022/01/21 15:25:24;;;;;;;;;;;0.70;99.90;;;-0.36;82.35;96828.59;10502464;28;1762;-78
2022/01/21 15:30:27;;;;;;;;;;;0.60;99.90;;;-0.27;81.97;96838.09;10493506;28;1973;-75
2022/01/21 15:35:30;;;;;;;;;;;0.70;99.90;;;-0.40;81.50;96843.16;10538150;22;2180;-76
2022/01/21 15:40:35;;;;;;;;;;;0.70;99.90;;;-0.31;82.91;96852.69;10571867;28;1714;-76
2022/01/21 15:45:38;;;;;;;;;;;0.60;99.90;;;-0.58;85.88;96846.94;10541227;28;1840;-75
2022/01/21 15:50:41;;;;;;;;;;;0.60;99.90;;;-0.78;88.63;96856.34;10527325;28;1906;-77
2022/01/21 15:55:44;;;;;;;;;;;0.40;99.90;;;-0.74;91.97;96868.19;10537288;28;1728;-76
2022/01/21 16:00:47;;;;;;;;;;;0.30;99.90;;;-0.84;93.17;96871.06;10537330;28;1852;-75
2022/01/21 16:05:50;;;;;;;;;;;0.20;99.90;;;-0.91;95.80;96871.94;10529464;28;1753;-76
2022/01/21 16:10:53;;;;;;;;;;;0.20;99.90;;;-1.05;98.81;96894.63;10531158;28;1976;-78
2022/01/21 16:15:56;;;;;;;;;;;0.10;99.90;;;-1.07;99.06;96885.25;10526361;28;1811;-77
2022/01/21 16:20:59;;;;;;;;;;;-0.10;99.90;;;-0.90;99.91;96884.13;10516105;28;1902;-78
2022/01/21 16:26:03;;;;;;;;;;;0.00;99.90;;;-0.77;99.10;96879.09;10516798;28;1878;-81
2022/01/21 16:31:06;;;;;;;;;;;0.10;99.90;;;-0.89;98.15;96885.78;10511669;28;1959;-77
2022/01/21 16:36:09;;;;;;;;;;;0.10;99.90;;;-0.96;99.02;96898.84;10522332;28;1754;-78
2022/01/21 16:41:13;;;;;;;;;;;0.00;99.90;;;-1.00;99.58;96900.22;10526869;28;1819;-78
2022/01/21 16:46:17;;;;;;;;;;;-0.10;99.90;;;-1.02;98.09;96894.25;10521279;28;1789;-77
2022/01/21 16:51:20;;;;;;;;;;;-0.10;99.90;;;-1.19;99.96;96893.53;10521782;28;1910;-77
2022/01/21 16:56:23;;;;;;;;;;;-0.20;99.90;;;-1.14;100.00;96890.38;10516954;28;1828;-78
2022/01/21 17:01:27;;;;;;;;;;;-0.20;99.90;;;-1.12;100.00;96881.28;10513895;28;1796;-78
2022/01/21 17:06:31;;;;;;;;;;;-0.20;99.90;;;-1.12;100.00;96886.56;10512089;28;1816;-77
2022/01/21 17:11:35;;;;;;;;;;;-0.10;99.90;;;-1.21;100.00;96889.41;10515056;28;1902;-78
2022/01/21 17:16:39;;;;;;;;;;;-0.20;99.90;;;-1.24;100.00;96882.69;10507553;28;1856;-78
2022/01/21 17:21:42;;;;;;;;;;;-0.20;99.90;;;-1.18;100.00;96881.97;10509103;28;1808;-78
2022/01/21 17:26:46;;;;;;;;;;;-0.20;99.90;;;-1.22;100.00;96885.94;10500253;28;1729;-78
2022/01/21 17:31:50;;;;;;;;;;;-0.20;99.90;;;-1.12;100.00;96896.31;10501748;28;1937;-79
2022/01/21 17:36:54;;;;;;;;;;;-0.10;99.90;;;-1.16;100.00;96897.63;10521485;28;1875;-80
2022/01/21 17:41:57;;;;;;;;;;;-0.10;99.90;;;-1.07;100.00;96909.81;10512059;28;1829;-80
2022/01/21 17:47:01;;;;;;;;;;;-0.10;99.90;;;-1.12;100.00;96912.97;10507333;28;1907;-79
2022/01/21 17:52:04;;;;;;;;;;;-0.10;99.90;;;-1.01;100.00;96918.84;10500674;28;2153;-79
2022/01/21 17:57:07;;;;;;;;;;;-0.10;99.90;;;-1.00;100.00;96916.03;10515936;28;1887;-81
2022/01/21 18:02:11;;;;;;;;;;;-0.10;99.90;;;-1.03;100.00;96926.09;10524535;28;1951;-79
2022/01/21 18:07:15;;;;;;;;;;;-0.10;99.90;;;-1.02;100.00;96918.00;10523650;28;1877;-80
2022/01/21 18:12:18;;;;;;;;;;;0.00;99.90;;;-0.93;100.00;96924.91;10510247;28;1918;-78
2022/01/21 18:17:22;;;;;;;;;;;0.00;99.90;;;-0.99;99.83;96930.06;10507335;28;1796;-79
2022/01/21 18:22:25;;;;;;;;;;;0.00;99.90;;;-1.05;99.96;96930.75;10508180;28;1974;-79
2022/01/21 18:27:28;;;;;;;;;;;-0.10;99.90;;;-0.97;100.00;96935.97;10510060;28;1816;-80
2022/01/21 18:32:31;;;;;;;;;;;0.00;99.90;;;-0.95;100.00;96940.09;10500228;28;1906;-80
2022/01/21 18:37:34;;;;;;;;;;;0.00;99.90;;;-0.99;98.92;96945.88;10500065;28;1875;-80
2022/01/21 18:42:40;;;;;;;;;;;-0.10;99.90;;;-1.01;98.53;96939.97;10508141;28;1753;-78
2022/01/21 18:47:43;;;;;;;;;;;0.00;99.90;;;-0.93;99.62;96942.56;10504534;28;1694;-80
2022/01/21 18:52:46;;;;;;;;;;;0.10;99.90;;;-0.91;98.17;96932.66;10491709;28;1980;-78
2022/01/21 18:57:51;;;;;;;;;;;0.00;99.90;;;-0.90;98.02;96939.56;10491318;28;1741;-76
2022/01/21 19:02:58;;;;;;;;;;;0.10;99.90;;;-0.87;97.52;96939.22;10495405;28;1827;-76
2022/01/21 19:08:00;;;;;;;;;;;0.10;99.90;;;-0.88;97.50;96950.78;10513661;28;1752;-77
2022/01/21 19:13:03;;;;;;;;;;;0.20;99.90;;;-0.93;96.12;96945.19;10495772;28;1910;-77
2022/01/21 19:18:08;;;;;;;;;;;0.20;99.90;;;-0.82;96.20;96934.25;10491722;28;1804;-78
2022/01/21 19:23:14;;;;;;;;;;;0.20;99.90;;;-0.82;95.60;96948.28;10539978;22;1922;-68
2022/01/21 19:28:17;;;;;;;;;;;0.20;99.90;;;-0.79;96.09;96960.31;10494416;28;1874;-68
2022/01/21 19:33:22;;;;;;;;;;;0.20;99.90;;;-0.92;93.49;96960.84;10464961;28;1918;-68
2022/01/21 19:38:25;;;;;;;;;;;0.20;99.90;;;-0.83;93.04;96953.72;10454444;28;1812;-68
2022/01/21 19:43:28;;;;;;;;;;;0.20;99.90;;;-0.72;92.23;96963.06;10448777;28;1922;-68
2022/01/21 19:48:37;;;;;;;;;;;0.30;99.90;;;-0.70;92.43;96958.44;10448432;28;1777;-69
2022/01/21 19:53:40;;;;;;;;;;;0.30;99.90;;;-0.64;92.18;96947.16;10440197;28;2466;-68
2022/01/21 19:59:02;;;;;;;;;;;0.40;99.90;;;-0.71;90.70;96941.75;10452921;28;1811;-68
2022/01/21 20:09:27;;;;;;;;;;;0.40;99.90;;;-0.71;90.02;96948.88;10486168;28;1961;-69
2022/01/21 20:14:35;;;;;;;;;;;0.40;99.90;;;-0.64;89.52;96947.16;10482844;28;1966;-68
2022/01/21 20:19:38;;;;;;;;;;;0.40;99.90;;;-0.66;86.90;96950.00;10481477;28;1852;-69
2022/01/21 20:24:43;;;;;;;;;;;0.40;99.90;;;-0.62;88.52;96961.03;10468166;28;1872;-68
2022/01/21 20:29:46;;;;;;;;;;;0.40;99.90;;;-0.62;89.23;96964.50;10461724;28;1829;-68
2022/01/21 20:34:50;;;;;;;;;;;0.40;99.90;;;-0.53;88.37;96973.19;10441741;28;1956;-69
2022/01/21 20:39:56;;;;;;;;;;;0.50;99.90;;;-0.77;100.00;96973.31;10442954;28;1835;-66
2022/01/21 20:44:59;;;;;;;;;;;0.50;99.90;;;-0.86;100.00;96975.19;10441876;28;1912;-68
2022/01/21 20:50:02;;;;;;;;;;;;;;;-0.94;100.00;96978.69;10444457;28;2505;-68
2022/01/21 20:55:07;;;;;;;;;;;;;;;-1.05;100.00;96988.81;10441561;28;1989;-69
2022/01/21 21:00:10;;;;;;;;;;;;;;;-1.09;100.00;96975.94;10443453;28;1869;-68
2022/01/21 21:05:14;;;;;;;;;;;;;;;-1.17;100.00;96978.63;10442474;28;1801;-68
2022/01/21 21:10:21;;;;;;;;;;;;;;;-1.33;100.00;96973.41;10428733;28;2343;-68
2022/01/21 21:15:31;;;;;;;;;;;;;;;-1.48;100.00;96975.91;10443340;28;1985;-68
2022/01/21 21:26:04;;;;;;;;;;;;;;;-1.51;100.00;96967.53;10445210;28;1876;-69
2022/01/21 22:52:01;;;;;;;;;;;;;;;-1.42;100.00;96897.91;10456648;28;1914;-67
2022/01/21 23:02:33;;;;;;;;;;;;;;;-1.35;100.00;96898.88;10448604;28;1856;-70
2022/01/21 23:07:36;;;;;;;;;;;;;;;-1.38;100.00;96881.59;10453170;28;1748;-69
2022/01/21 23:12:40;;;;;;;;;;;;;;;-1.34;100.00;96876.78;10446454;28;1914;-69
2022/01/21 23:17:45;;;;;;;;;;;;;;;-1.37;100.00;96856.03;10450511;28;1868;-68
2022/01/21 23:22:49;;;;;;;;;;;;;;;-1.41;100.00;96844.16;10463332;28;2461;-68
2022/01/21 23:27:55;;;;;;;;;;;;;;;-1.37;100.00;96835.75;10449868;28;1888;-70
2022/01/21 23:33:07;;;;;;;;;;;;;;;-1.30;100.00;96843.78;10450418;28;1918;-69
2022/01/21 23:38:28;;;;;;;;;;;;;;;-1.29;100.00;96841.97;10454668;28;1869;-70
2022/01/21 23:43:31;;;;;;;;;;;;;;;-1.27;100.00;96850.53;10450410;28;2335;-70
2022/01/21 23:48:35;;;;;;;;;;;;;;;-1.22;100.00;96843.75;10467034;28;1864;-68
2022/01/21 23:53:39;;;;;;;;;;;;;;;-1.21;100.00;96844.56;10448905;28;2122;-69
2022/01/21 23:58:43;;;;;;;;;;;;;;;-1.19;99.41;96840.78;10446464;28;1931;-70
